Loipe Atzenberg wird gespurt!
 
18.02.2018Höhe
ü. NN
ZeitTemperatur (°C)Nieder-
schlag
Luft-
feuchte
Luft-
druck
Wind
StationaktuellMinimumMaximumaktuellMaximum
Allmannsweiler625 m09:30-1,8-2,2 (08:05)-1,2 (00:00)0,0 l/m²98%1026,89,7 km/h (2 Bft) O-NO11,3 km/h (2 Bft) O-NO (09:00)
Allmendingen541 m09:30-0,2-1,8 (03:45)-0,2 (14:15)0,0 l/m²90%1026,93,2 km/h (1 Bft) O-NO16,1 km/h (3 Bft) O (11:25)
Altshausen574 m09:31-1,2-1,4 (07:16)-0,6 (00:00)0,2 l/m²95%1025,50,0 km/h (0 Bft) N-NW1,6 km/h (1 Bft) N-NW (06:55)
Amstetten-Reutti663 m09:30-1,3-2,8 (04:55)-1,3 (14:45)0,0 l/m²96%1027,34,8 km/h (1 Bft) NO25,7 km/h (4 Bft) O-NO (14:25)
Aulendorf570 m09:30-1,1-1,4 (07:40)-0,5 (00:00)0,0 l/m²93%1026,40,0 km/h (0 Bft) N-NO0,0 km/h (0 Bft) N-NO (00:00)
Bad Krozingen233 m09:30-0,2-0,3 (08:55)0,4 (11:20)0,0 l/m²99%1028,73,3 km/h (1 Bft) W-NW11,5 km/h (2 Bft) N (13:05)
Bad Saulgau-Lampertsweiler627 m09:30-1,2-2,2 (04:15)-1,0 (00:35)0,2 l/m²90%1029,20,0 km/h (0 Bft) N-NO0,0 km/h (0 Bft) O-NO (00:00)
Bad Schussenried572 m09:30-0,9-1,4 (07:30)-0,6 (00:00)0,2 l/m²98%1025,53,2 km/h (1 Bft) N-NO6,4 km/h (2 Bft) N-NO (08:55)
Bergatreute615 m09:30-1,0-1,6 (07:30)-0,9 (00:00)0,0 l/m²98%1026,70,0 km/h (0 Bft) NO0,0 km/h (0 Bft) NW (00:00)
Biberach (Riss), Boehringer533 m09:20-0,7-1,6 (07:40)-0,6 (09:20)0,6 l/m²97%1025,55,0 km/h (1 Bft) N-NO11,9 km/h (3 Bft) N (07:50)
Biberach (Riss), Realschule553 m09:30-1,2-1,7 (07:45)-0,8 (00:00)0,6 l/m²92%1027,78,0 km/h (2 Bft) N12,9 km/h (3 Bft) O-NO (05:00)
Bodnegg-Rotheidlen677 m09:30-1,9-2,4 (08:00)-1,7 (00:00)0,0 l/m²96%1026,61,6 km/h (1 Bft) NO4,8 km/h (1 Bft) O-NO (09:20)
Burgrieden523 m09:30-1,1-1,9 (06:55)-0,9 (00:00)0,4 l/m²93%1027,30,0 km/h (0 Bft) N-NO0,0 km/h (0 Bft) NO (00:00)
Burgrieden-Hochstetten510 m09:30-0,7-1,5 (07:06)-0,7 (13:55)0,4 l/m²91%1027,50,0 km/h (0 Bft) O-NO16,1 km/h (3 Bft) O (14:30)
Donauwörth411 m09:30-2,8-4,5 (07:10)-0,6 (00:00)0,0 l/m²96%1028,30,0 km/h (0 Bft) NW11,3 km/h (2 Bft) W-NW (08:20)
Ebersbach579 m09:30-1,1-1,5 (07:45)-0,7 (00:00)0,4 l/m²96%1027,98,0 km/h (2 Bft) NO12,9 km/h (3 Bft) NO (08:35)
Ebersbach-Boos605 m09:30-1,7-2,0 (07:55)-1,1 (00:00)0,0 l/m²96%1027,60,0 km/h (0 Bft) NO0,0 km/h (0 Bft) O-NO (00:00)
Ebersbach-Menzenweiler661 m09:30-2,1-2,3 (07:00)-1,4 (00:00)0,0 l/m²99%1027,60,0 km/h (0 Bft) NO0,0 km/h (0 Bft) NO (00:00)
Ertingen569 m01:35-1,1-1,1 (01:00)-0,8 (00:00)0,3 l/m²97%1025,40,0 km/h (0 Bft) N-NW0,0 km/h (0 Bft) N (00:00)
Friedrichshafen405 m09:300,6-0,1 (05:20)0,6 (14:00)0,2 l/m²94%1027,16,4 km/h (2 Bft) NO16,1 km/h (3 Bft) N-NO (10:00)
Furkajoch (AT)1630 m09:10-5,8-7,1 (07:40)-4,4 (00:00)0,0 l/m²96%1020,30,0 km/h (0 Bft) N-NO11,3 km/h (2 Bft) NO (01:05)
Günzburg443 m09:30-1,3-1,7 (05:45)-0,3 (00:00)0,0 l/m²95%1024,90,0 km/h (0 Bft) N-NO0,0 km/h (0 Bft) O-NO (00:00)
Höchsten802 m09:30-2,5-3,1 (07:20)-2,3 (00:00)0,0 l/m²95%1024,80,0 km/h (0 Bft) NO0,0 km/h (0 Bft) NO (00:00)
Horgenzell618 m09:30-2,1-2,1 (04:25)-1,5 (00:35)0,0 l/m²96%1025,511,3 km/h (2 Bft) N-NO16,1 km/h (3 Bft) NO (09:25)
Hoßkirch632 m09:30-1,4-1,9 (07:30)-0,9 (00:20)0,0 l/m²94%1026,39,7 km/h (2 Bft) NO14,5 km/h (3 Bft) N (00:20)
Isny im Allgäu695 m09:30-1,7-2,1 (07:40)-1,5 (00:00)0,4 l/m²95%1025,90,0 km/h (0 Bft) N-NW0,0 km/h (0 Bft) NW (09:30)
Kappel-Grafenhausen163 m09:250,60,1 (06:30)1,2 (10:00)1,0 l/m²95%1026,84,8 km/h (1 Bft) N-NO20,9 km/h (4 Bft) N-NW (10:45)
Kirchberg an der Iller584 m09:30-1,3-1,8 (07:50)-0,9 (10:00)0,0 l/m²80%1016,90,0 km/h (0 Bft) S-SO2,9 km/h (1 Bft) S-SO (10:05)
Kißlegg-Staibshof709 m09:30-2,2-2,4 (07:15)-1,7 (00:00)0,0 l/m²96%1026,71,6 km/h (1 Bft) N-NO9,7 km/h (2 Bft) N (00:15)
Kressbronn398 m09:32-0,2-0,8 (07:40)-0,2 (09:28)0,0 l/m²95%1025,90,0 km/h (0 Bft) N-NW0,0 km/h (0 Bft) N-NW (00:00)
Kreuzthal-Steinbergalm930 m09:30-2,6-3,3 (07:50)-1,9 (08:50)0,8 l/m²100%1026,02,9 km/h (1 Bft) N9,0 km/h (2 Bft) W-NW (09:30)
Kreuzthal-Steinberggipfel1040 m09:30-3,6-4,5 (07:40)-3,1 (08:40)-100%1026,07,9 km/h (2 Bft) N-NO13,3 km/h (3 Bft) N (09:30)
Kristberg im Montafon (AT)1425 m09:30-5,2-5,8 (07:25)-2,8 (00:00)0,4 l/m²95%1023,50,0 km/h (0 Bft) SO9,7 km/h (2 Bft) N-NO (00:25)
Laupheim500 m09:30-1,4-1,7 (06:45)-0,8 (00:00)0,0 l/m²93%1026,60,0 km/h (0 Bft) N-NO0,0 km/h (0 Bft) N-NO (00:00)
Leutkirch-Heggelbach670 m09:30-1,3-2,2 (07:25)-1,3 (09:10)0,8 l/m²91%1025,80,0 km/h (0 Bft) N-NO0,0 km/h (0 Bft) O-NO (00:00)
Lindau-Insel420 m09:300,60,1 (07:10)0,8 (15:55)0,4 l/m²93%1026,18,0 km/h (2 Bft) N-NO14,5 km/h (3 Bft) O-SO (15:00)
Lindau-Stadt412 m09:300,2-0,3 (07:35)0,4 (16:10)0,2 l/m²95%1026,33,2 km/h (1 Bft) N9,7 km/h (2 Bft) O-NO (13:45)
Maierhöfen im Allgäu733 m09:40-1,0-1,8 (06:40)-1,0 (09:40)0,8 l/m²95%1026,10,0 km/h (0 Bft) N-NO0,0 km/h (0 Bft) N (00:00)
Maselheim-Sulmingen548 m09:30-1,3-1,9 (06:45)-1,1 (12:40)0,2 l/m²92%1028,44,8 km/h (1 Bft) NO14,5 km/h (3 Bft) O-NO (14:20)
Mindelheim-Apfeltrach620 m09:31-1,5-2,2 (05:40)-1,5 (13:39)0,0 l/m²96%1028,00,0 km/h (0 Bft) N-NO14,5 km/h (3 Bft) N-NO (16:02)
Neresheim552 m09:00-4,5-5,6 (07:00)-1,5 (00:00)0,0 l/m²99%1026,00,0 km/h (0 Bft) N-NW7,6 km/h (2 Bft) N-NO (00:00)
Neukirch570 m09:30-0,8-1,2 (05:55)-0,2 (15:15)3,6 l/m²97%1026,80,0 km/h (0 Bft) N0,0 km/h (0 Bft) N (10:00)
Ochsenhausen613 m09:30-1,0-1,7 (07:30)-0,9 (10:25)0,0 l/m²91%1027,20,0 km/h (0 Bft) NW9,7 km/h (2 Bft) W (16:00)
Ostrach619 m09:30-0,2-0,8 (07:45)0,2 (11:45)1,8 l/m²94%1025,70,0 km/h (0 Bft) N-NO12,9 km/h (3 Bft) N-NW (10:05)
Ravensburg428 m09:300,4-0,1 (06:30)0,4 (00:00)0,0 l/m²95%1026,33,2 km/h (1 Bft) N-NW6,4 km/h (2 Bft) N-NO (00:00)
Ravensburg-Wernsreute511 m09:30-0,4-1,2 (04:30)-0,4 (11:40)0,2 l/m²93%1028,58,0 km/h (2 Bft) N22,5 km/h (4 Bft) N (10:06)
Reichenbach an der Fils343 m09:30-0,3-1,6 (05:55)0,2 (00:00)0,0 l/m²92%1030,00,0 km/h (0 Bft) N-NW17,7 km/h (3 Bft) N (04:45)
Reinstetten559 m09:30-0,9-1,8 (06:55)-0,9 (00:00)0,2 l/m²92%1027,58,0 km/h (2 Bft) N11,3 km/h (2 Bft) N-NO (05:15)
Riedlingen530 m09:30-0,2-1,5 (04:30)-0,2 (09:20)0,2 l/m²96%1027,19,7 km/h (2 Bft) O9,7 km/h (2 Bft) O-SO (09:30)
Rißtissen489 m09:30-0,8-1,2 (06:55)-0,2 (00:00)0,0 l/m²96%1024,91,6 km/h (1 Bft) N6,4 km/h (2 Bft) N-NW (09:00)
Schemmerhofen520 m09:30-1,1-1,6 (08:10)-0,5 (00:00)0,0 l/m²97%1026,90,0 km/h (0 Bft) N-NO0,0 km/h (0 Bft) N-NW (00:00)
Silbertal im Montafon (AT)884 m09:30-1,3-1,4 (07:55)1,3 (00:00)1,0 l/m²96%1025,03,2 km/h (1 Bft) W-NW12,9 km/h (3 Bft) W (01:55)
Tettnang466 m09:30-0,1-0,7 (05:05)0,1 (00:00)0,4 l/m²96%1025,90,0 km/h (0 Bft) N-NO0,0 km/h (0 Bft) N (00:00)
Tuttlingen662 m09:30-1,5-2,6 (04:35)-1,5 (09:30)0,0 l/m²94%1026,86,1 km/h (2 Bft) NW9,2 km/h (2 Bft) NW (00:00)
Waldburg707 m09:30-1,3-1,8 (07:30)-1,2 (00:00)0,2 l/m²94%1026,40,0 km/h (0 Bft) N6,4 km/h (2 Bft) NO (00:35)
Waltenhofen im Allgäu720 m09:30-0,8-2,1 (05:00)-0,8 (09:30)0,0 l/m²87%1025,30,0 km/h (0 Bft) N0,0 km/h (0 Bft) N (00:00)
Weingarten500 m09:30-0,3-0,4 (04:30)0,1 (00:00)0,0 l/m²96%1026,70,0 km/h (0 Bft) N-NO0,0 km/h (0 Bft) N (00:00)
Winterlingen785 m06:00-3,2-3,2 (06:00)-2,6 (00:30)0,0 l/m²95%1024,30,0 km/h (0 Bft) N3,2 km/h (1 Bft) N-NW (05:00)

Die folgenden Messwerte der Wetterstation Bad Saulgau-Lampertsweiler werden uns von Drehers Erlebnishof zur Verfügung gestellt - vielen Dank!
Ansprechpartner ist Tobias Dreher.

aktuelle messwerte - wetterwarte süd - Standort Wetterstation Bad Saulgau-Lampertsweiler - 627 über NN
  wetterwarte süd | Bad Saulgau-Lampertsweiler | 627m über NN
Die dargestellten Werte repräsentieren die Daten des aktuellen Tages!
Der Luftdruck ist auf Meereshöhe bezogen!
Die Mond-/Sonnen-Daten beziehen sich auf die Standortkoordinaten von 48° 0' 2" Nord - 9° 32' 41" Ost
  Datum | Zeit
Sonntag, 18. Februar 2018
|
09:30
  Temperatur
aktuell
-1,2°C
Min.(04:15)
-2,2°C
Max.(00:35)
-1,0°C
Durchschnitt
-1,6°C
  Windchill aktuell
-1,2°C
Min.(04:15)
-2,2°C
Max.(00:35)
-1,1°C
Durchschnitt
-1,6°C
  Luftfeuchtigkeit aktuell
90%
Min.(09:00)
90%
Max.(06:00)
95%
Durchschnitt
93%
  Taupunkt aktuell
-2,6°C
Min.(04:15)
-3,0°C
Max.(00:35)
-1,9°C
Durchschnitt
-2,6°C
  Luftdruck aktuell
1029,2 hPa
1,0 hPa/6h
Min.(00:00)
1026,6 hPa
Max.(09:05)
1029,2 hPa
Durchschnitt
1028,3 hPa
 
0,1 hPa/1h 0,4 hPa/2h 0,5 hPa/3h -- hPa/12h -- hPa/24h
  Windrichtung 26°/ N-NO
  Wind aktuell
0,0 km/h (0 Bft.)
Max.(00:00)
O-NO 0,0 km/h (0 Bft.)
Durchschnitt
0,0 km/h (0 Bft.)
  Niederschlag
letzte Stunde 0,0 l/m²
heute 0,2 l/m²
aktuelle Woche 27,2 l/m²
aktueller Monat 36,0 l/m²
aktuelles Jahr 110,6 l/m²
  Sonne
Sonnenaufgang gestern 07:25 17. Februar 2018
Sonnenaufgang 07:23
Sonnenzenit 12:35
Sonnenuntergang 17:48
Sonnenaufgang morgen 07:21 19. Februar 2018
Sonnenuntergang morgen 17:50 19. Februar 2018
Sonnenstunden heute 0 Minuten
  Mond
Alter des Mondes 2 Tage, 8 Stunden, 1 Minute
Mondaufgang 08:47
Mondzenit 14:35
Monduntergang 20:32
Mondphase 6%
(0% = Neumond, 100% = Vollmond)
nächster Neumond 14:12 17. März 2018
erstes Viertel 09:10 23. Februar 2018
nächster Vollmond 01:52 2. März 2018
letztes Viertel 12:21 9. März 2018
 
 messwerte
 
 hinweis
Die Niederderschlagswerte und Winddaten auf dieser Seite, sowie auf allen Seiten mit Daten unserer digitalen Wetterstation, sind besonders im Winterhalbjahr mit Vorsicht zu genießen, da bei Frost die Wetterparameter Niederschlag, Windstärke und zum Teil auch Windrichtung zeitweise nicht angezeigt werden. Die offiziellen und korrekt dargestellten Wetterdaten der Station finden Sie unter "statistiken > wetterwarte bad schussenried > tages- und monatsdaten".
 
wetterstationen
wetterstationen
- derzeit 66 Stationen
wetterstationen
wetterstationen
- kartographische Darstellung
niederschlagsdatenbank
niederschlagsstationen
- derzeit 102 Stationen
niederschlagsdatenbank
niederschlagsstationen
- kartographische Darstellung
webcams
interessante webcams
im Vorhersagegebiet
 
Sa. 7.30 Uhr - So. 7.30 Uhr (MEZ)
1.Biberach
Amriswilstrasse
32,2 l/m²
2.Herbertingen
Drosselweg
31,0 l/m²
3.Bad Schussenried
Lortzingstrasse
24,0 l/m²
4.Blaubeuren-Pappelau22,0 l/m²
5.Aulendorf-Blönried20,5 l/m²
6.Eberhardzell
Lilienweg
20,4 l/m²
7.Öpfingen20,2 l/m²
8.Baienfurt20,0 l/m²
9.Schelklingen-Gundershofen20,0 l/m²
10.Riedhausen19,6 l/m²
11.Leutkirch
Nachtigallenweg 28
19,0 l/m²
12.Pfaffenhofen-Kadeltshofen19,0 l/m²
13.Albbruck 18,5 l/m²
14.Weingarten
Laurastraße
18,5 l/m²
15.Ravensburg-Wernsreute18,2 l/m²
16.Leutkirch-Adrazhofen17,5 l/m²
17.Illerkirchberg17,5 l/m²
18.Wangen-Bergerhöhe17,0 l/m²
19.Allmendingen15,0 l/m²
20.Bad Waldsee-Haisterkirch13,5 l/m²
21.Kreuzthal-Steinberg11,7 l/m²
22.Isny11,2 l/m²
23.Langenau11,0 l/m²
24.Münsingen-Rietheim10,2 l/m²
25.Wolpertswende8,5 l/m²
26.Vöhringen5,0 l/m²
27.Erlenmoos3,2 l/m²
28.Inzigkofen2,6 l/m²
29.Füramoos2,1 l/m²
 
So. 18.02.2018 - 7.30 Uhr (MEZ)
1.Kreuzthal-Steinberg50 cm
2.Vöhringen28,0
3.Blaubeuren-Pappelau23 cm
4.Ehingen
Schillerstraße
22 cm
5.Warthausen-Barabein21 cm
6.Öpfingen20cm
7.Herbertingen
Drosselweg
20cm
8.Biberach
Strölinweg
20 cm
9.Illerkirchberg19 cm
10.Biberach
Mittelbergstraße 9
19 cm
11.Gutenzell19cm
12.Biberach
Amriswilstrasse
18 cm
13.Schelklingen-Gundershofen17 cm
14.Pfaffenhofen-Kadeltshofen14 cm
15.Münsingen-Rietheim13 cm
16.Eberhardzell
Lilienweg
12 cm
17.Baienfurt12 cm
18.Langenau11cm
19.Aulendorf-Blönried10 cm
20.Isny10 cm
21.Wolpertswende8 cm
22.Leutkirch-Adrazhofen8 cm
23.Leutkirch
Nachtigallenweg 28
8cm
24.Ravensburg-Wernsreute6,5
25.Riedhausen5-8 cm
26.Weingarten
Laurastraße
5 cm
27.Wangen-Bergerhöhe4 cm
28.Erlenmoos3 cm
29.Inzigkofen2 cm
 
 aktuelles
 
  treffpunkt & service
 
 newsletter
Wer hin und wieder aktuelle Informationen erhalten möchte, der abonniere den kostenlosen Newsletter der wws.

zugriffe:
insgesamt: 35.779.427
aktueller monat: 199.142
heute: 3.589
momentan online: 109
 
 
monatshöchstwert: 653.625
vorheriger monat: 408.471
gestern: 15.386
tageshöchstwert: 41.209
 
wetterwarte süd
 
konradstraße 3
info@wetterwarte-sued.com
roland roth
 
88427 bad schussenried